Time;durP1;ratioP1;P1;durP2;ratioP2;P2;SDS_P1;SDS_P2;PMS_P1;PMS_P2;Temp;Humidity;BMP_temperature;BMP_pressure;BME280_temperature;BME280_humidity;BME280_pressure;Samples;Min_cycle;Max_cycle;Signal;HPM_P1;HPM_P2
2021/03/02 00:00:00;;;;;;;23.15;12.75;;;4.80;68.70;;;;;;4996439;28;20460;-84
2021/03/02 00:02:26;;;;;;;22.33;10.90;;;4.80;68.70;;;;;;5014117;28;20531;-84
2021/03/02 00:04:52;;;;;;;21.88;12.43;;;4.80;68.70;;;;;;4996079;28;20032;-85
2021/03/02 00:07:18;;;;;;;21.20;11.65;;;4.80;68.70;;;;;;5013504;28;20026;-84
2021/03/02 00:09:44;;;;;;;20.45;11.30;;;4.80;68.70;;;;;;5014241;28;20038;-86
2021/03/02 00:12:10;;;;;;;20.73;10.07;;;4.80;68.80;;;;;;5013950;28;20101;-83
2021/03/02 00:14:37;;;;;;;21.00;11.15;;;4.80;68.80;;;;;;4996393;28;20057;-84
2021/03/02 00:17:07;;;;;;;20.38;11.18;;;4.80;68.80;;;;;;5013745;28;20068;-85
2021/03/02 00:19:40;;;;;;;18.65;11.00;;;4.70;68.80;;;;;;5013434;28;20030;-85
2021/03/02 00:22:22;;;;;;;19.52;11.05;;;4.70;68.90;;;;;;5013505;28;20026;-85
2021/03/02 00:24:53;;;;;;;18.45;10.80;;;4.70;69.00;;;;;;5013777;28;20069;-88
2021/03/02 00:27:19;;;;;;;18.88;11.07;;;4.70;69.10;;;;;;5013956;28;20451;-84
2021/03/02 00:29:46;;;;;;;19.80;10.50;;;4.70;69.00;;;;;;5016985;28;20460;-85
2021/03/02 00:32:17;;;;;;;19.48;11.18;;;4.70;69.10;;;;;;5017599;28;20030;-85
2021/03/02 00:34:42;;;;;;;17.58;10.32;;;4.70;69.20;;;;;;5017106;28;20030;-85
2021/03/02 00:37:08;;;;;;;16.80;9.57;;;4.70;69.10;;;;;;5017169;28;20072;-85
2021/03/02 00:39:34;;;;;;;15.80;10.00;;;4.80;69.10;;;;;;5017095;28;20066;-85
2021/03/02 00:41:59;;;;;;;19.50;11.02;;;4.80;69.00;;;;;;4999635;28;20028;-85
2021/03/02 00:44:25;;;;;;;18.38;10.23;;;4.80;68.80;;;;;;4999876;28;20022;-85
2021/03/02 00:46:51;;;;;;;19.73;10.70;;;4.70;69.00;;;;;;5017214;28;20072;-85
2021/03/02 00:49:16;;;;;;;20.27;9.95;;;4.70;68.90;;;;;;5016903;28;20034;-84
2021/03/02 00:51:42;;;;;;;16.17;9.95;;;4.70;69.10;;;;;;5017023;28;20026;-84
2021/03/02 00:54:08;;;;;;;20.52;11.13;;;4.70;69.10;;;;;;5014039;28;20530;-84
2021/03/02 00:56:33;;;;;;;15.73;9.95;;;4.70;69.20;;;;;;5017246;28;20029;-85
2021/03/02 00:58:59;;;;;;;18.23;10.27;;;4.70;69.10;;;;;;4999083;28;20454;-86
2021/03/02 01:01:25;;;;;;;17.33;9.40;;;4.70;69.00;;;;;;5016872;28;20030;-85
2021/03/02 01:03:51;;;;;;;15.13;9.10;;;4.70;69.60;;;;;;5016336;28;20361;-90
2021/03/02 01:06:17;;;;;;;15.65;9.48;;;4.70;69.00;;;;;;5016919;28;20068;-86
2021/03/02 01:08:43;;;;;;;13.85;8.85;;;4.70;69.00;;;;;;4982774;28;20047;-85
2021/03/02 01:11:08;;;;;;;13.30;8.45;;;4.70;69.00;;;;;;5016157;28;20109;-85
2021/03/02 01:13:34;;;;;;;17.77;8.98;;;4.70;69.60;;;;;;4999102;28;20428;-86
2021/03/02 01:16:01;;;;;;;15.70;8.68;;;4.70;69.10;;;;;;5016559;28;20181;-86
2021/03/02 01:18:26;;;;;;;14.55;8.63;;;4.70;69.10;;;;;;5016531;28;20026;-85
2021/03/02 01:20:52;;;;;;;15.23;8.43;;;4.70;69.10;;;;;;5016645;28;20033;-87
2021/03/02 01:23:19;;;;;;;14.32;8.77;;;4.70;69.10;;;;;;5016314;28;20026;-85
2021/03/02 01:25:44;;;;;;;13.93;8.65;;;4.70;69.20;;;;;;5016491;28;20025;-84
2021/03/02 01:28:10;;;;;;;14.55;8.13;;;4.70;69.00;;;;;;5016253;28;20095;-84
2021/03/02 01:30:36;;;;;;;12.50;7.40;;;4.80;68.90;;;;;;5015938;28;20113;-84
2021/03/02 01:33:01;;;;;;;12.73;8.02;;;4.70;69.00;;;;;;5015940;28;20026;-85
2021/03/02 01:35:27;;;;;;;12.55;7.45;;;4.80;69.10;;;;;;5016225;28;20058;-85
2021/03/02 01:37:53;;;;;;;11.85;7.95;;;4.70;69.00;;;;;;5015756;28;20096;-87
2021/03/02 01:40:19;;;;;;;13.85;8.10;;;4.80;69.00;;;;;;5015329;28;20033;-85
2021/03/02 01:42:45;;;;;;;14.75;7.78;;;4.80;69.00;;;;;;5015876;28;20104;-85
2021/03/02 01:45:13;;;;;;;12.48;8.10;;;4.80;68.90;;;;;;5016392;28;20026;-85
2021/03/02 01:47:41;;;;;;;12.60;7.93;;;4.80;68.90;;;;;;4998226;28;20029;-85
2021/03/02 01:50:09;;;;;;;10.90;7.38;;;4.80;68.80;;;;;;5015684;28;20480;-85
2021/03/02 01:52:35;;;;;;;14.15;7.60;;;4.80;68.90;;;;;;5016446;28;20037;-85
2021/03/02 01:55:03;;;;;;;12.63;7.60;;;4.80;68.80;;;;;;4997989;28;20057;-85
2021/03/02 01:57:29;;;;;;;15.55;7.47;;;4.80;68.80;;;;;;5015454;28;20062;-85
2021/03/02 01:59:55;;;;;;;11.75;6.97;;;4.80;68.80;;;;;;5016030;28;20094;-87
2021/03/02 02:02:51;;;;;;;13.50;7.30;;;4.80;68.70;;;;;;5016083;28;20353;-84
2021/03/02 02:05:18;;;;;;;11.48;7.13;;;4.80;68.80;;;;;;5015983;28;20431;-85
2021/03/02 02:07:51;;;;;;;11.52;6.85;;;4.80;68.70;;;;;;5015720;28;20033;-85
2021/03/02 02:10:34;;;;;;;11.40;6.70;;;4.80;68.70;;;;;;5015149;28;20120;-85
2021/03/02 02:13:08;;;;;;;11.02;6.70;;;4.80;68.60;;;;;;5015316;28;20057;-85
2021/03/02 02:15:37;;;;;;;10.43;7.30;;;4.70;68.50;;;;;;5015518;28;20025;-85
2021/03/02 02:18:13;;;;;;;8.70;6.10;;;4.80;68.50;;;;;;5015399;28;20033;-85
2021/03/02 02:20:54;;;;;;;10.48;6.13;;;4.70;68.70;;;;;;5015195;28;20025;-85
2021/03/02 02:23:34;;;;;;;10.38;6.63;;;4.70;68.60;;;;;;5015021;28;20022;-85
2021/03/02 02:26:14;;;;;;;9.80;6.53;;;4.70;68.70;;;;;;5015120;28;20033;-85
2021/03/02 02:28:42;;;;;;;10.57;6.65;;;4.70;68.60;;;;;;5015307;28;20073;-85
2021/03/02 02:31:10;;;;;;;11.05;7.07;;;4.70;68.60;;;;;;5014831;28;20125;-85
2021/03/02 02:33:41;;;;;;;9.77;6.20;;;4.70;68.70;;;;;;5014985;28;20136;-85
2021/03/02 02:36:11;;;;;;;9.88;6.30;;;4.70;68.70;;;;;;5014985;28;20028;-85
2021/03/02 02:38:41;;;;;;;9.95;6.15;;;4.70;68.70;;;;;;5015286;28;20028;-85
2021/03/02 02:41:08;;;;;;;13.05;6.50;;;4.60;68.60;;;;;;5014696;28;20134;-85
2021/03/02 02:43:34;;;;;;;8.63;6.32;;;4.70;68.70;;;;;;4997422;28;20028;-85
2021/03/02 02:46:00;;;;;;;12.07;6.57;;;4.70;68.80;;;;;;5014614;28;20100;-85
2021/03/02 02:48:28;;;;;;;11.40;6.68;;;4.70;68.70;;;;;;4997496;28;20530;-85
2021/03/02 02:50:54;;;;;;;10.18;6.40;;;4.70;68.60;;;;;;5014690;28;20379;-85
2021/03/02 02:53:20;;;;;;;10.77;6.07;;;4.60;68.60;;;;;;5014418;28;20034;-85
2021/03/02 02:55:51;;;;;;;13.50;6.80;;;4.60;68.60;;;;;;5020925;28;20128;-85
2021/03/02 02:58:22;;;;;;;12.15;6.85;;;4.60;69.30;;;;;;5015186;28;20045;-85
2021/03/02 03:00:50;;;;;;;10.75;7.05;;;4.60;68.90;;;;;;5014472;28;20049;-85
2021/03/02 03:03:20;;;;;;;9.35;6.15;;;4.60;69.00;;;;;;5014768;28;20371;-85
2021/03/02 03:05:50;;;;;;;13.50;7.63;;;4.60;68.80;;;;;;4997076;28;20399;-85
2021/03/02 03:08:21;;;;;;;13.98;7.00;;;4.50;68.70;;;;;;5014521;28;20022;-85
2021/03/02 03:10:49;;;;;;;12.02;6.65;;;4.60;68.90;;;;;;5014253;28;20038;-85
2021/03/02 03:13:18;;;;;;;13.57;6.70;;;4.50;68.90;;;;;;4996650;28;20025;-85
2021/03/02 03:15:53;;;;;;;14.80;7.43;;;4.50;68.90;;;;;;4996752;28;20544;-85
2021/03/02 03:18:20;;;;;;;;;;;4.50;68.80;;;;;;5015373;28;20040;-85
2021/03/02 03:20:51;;;;;;;14.10;6.50;;;4.50;68.70;;;;;;5014486;28;19912;-85
2021/03/02 03:23:18;;;;;;;9.93;6.22;;;4.50;68.60;;;;;;5014612;28;20026;-85
2021/03/02 03:25:44;;;;;;;11.85;6.97;;;4.50;68.80;;;;;;5014206;28;20387;-85
2021/03/02 03:28:15;;;;;;;11.85;6.35;;;4.50;68.90;;;;;;5014243;28;20084;-85
2021/03/02 03:30:42;;;;;;;14.07;7.10;;;4.50;69.00;;;;;;5014274;28;20042;-85
2021/03/02 03:33:11;;;;;;;12.07;5.95;;;4.50;69.00;;;;;;5014741;28;20416;-85
2021/03/02 03:35:40;;;;;;;11.30;6.60;;;4.40;69.00;;;;;;5014277;28;20034;-85
2021/03/02 03:38:06;;;;;;;13.77;6.25;;;4.50;69.10;;;;;;5014554;28;20053;-85
2021/03/02 03:40:33;;;;;;;13.07;6.60;;;4.50;69.20;;;;;;5014190;28;20065;-85
2021/03/02 03:42:58;;;;;;;10.98;5.63;;;4.50;69.00;;;;;;4996466;28;20398;-85
2021/03/02 03:45:24;;;;;;;12.20;6.15;;;4.50;68.90;;;;;;4996322;28;20053;-85
2021/03/02 03:47:50;;;;;;;9.52;5.28;;;4.50;68.80;;;;;;5014600;28;20092;-84
2021/03/02 03:50:16;;;;;;;10.98;5.47;;;4.50;68.70;;;;;;5013607;28;20395;-84
2021/03/02 03:52:46;;;;;;;7.80;5.38;;;4.50;68.80;;;;;;5013595;28;20033;-84
2021/03/02 03:55:14;;;;;;;9.68;5.68;;;4.50;68.90;;;;;;5013510;28;20127;-85
2021/03/02 03:57:40;;;;;;;8.60;5.18;;;4.40;68.80;;;;;;5016983;28;20017;-85
2021/03/02 04:00:08;;;;;;;8.25;5.47;;;4.40;68.80;;;;;;5026510;28;20030;-84
2021/03/02 04:02:34;;;;;;;10.35;5.28;;;4.40;68.80;;;;;;5011381;28;20064;-84
2021/03/02 04:05:05;;;;;;;8.32;5.25;;;4.40;68.90;;;;;;5002435;28;20030;-86
2021/03/02 04:07:33;;;;;;;9.32;5.10;;;4.40;68.90;;;;;;5014331;28;20034;-85
2021/03/02 04:09:59;;;;;;;10.00;5.32;;;4.30;68.90;;;;;;5013460;28;20034;-85
2021/03/02 04:12:24;;;;;;;7.32;4.65;;;4.30;68.90;;;;;;5010944;28;20072;-86
2021/03/02 04:14:50;;;;;;;6.50;4.20;;;4.30;68.90;;;;;;5012833;28;20034;-85
2021/03/02 04:17:16;;;;;;;8.05;5.05;;;4.30;68.90;;;;;;5012795;28;20026;-85
2021/03/02 04:19:42;;;;;;;9.65;5.25;;;4.20;68.90;;;;;;4994916;28;20452;-86
2021/03/02 04:22:08;;;;;;;8.70;4.93;;;4.20;69.10;;;;;;5012561;28;20025;-85
2021/03/02 04:24:33;;;;;;;6.28;4.45;;;4.10;69.10;;;;;;5012607;28;20022;-85
2021/03/02 04:26:59;;;;;;;6.75;4.38;;;4.10;69.20;;;;;;5012553;28;20025;-85
2021/03/02 04:29:25;;;;;;;8.15;4.68;;;4.00;69.30;;;;;;5012138;28;20030;-86
2021/03/02 04:31:50;;;;;;;7.03;4.45;;;4.00;69.40;;;;;;5012517;28;20494;-86
2021/03/02 04:34:16;;;;;;;6.68;4.40;;;3.90;69.50;;;;;;5012589;28;20033;-86
2021/03/02 04:36:42;;;;;;;8.40;4.65;;;3.90;69.60;;;;;;5012780;28;20037;-86
2021/03/02 04:39:08;;;;;;;7.43;4.65;;;3.80;69.80;;;;;;5012253;28;20049;-84
2021/03/02 04:41:34;;;;;;;8.27;4.47;;;3.80;69.90;;;;;;5012094;28;20480;-85
2021/03/02 04:44:01;;;;;;;9.05;5.43;;;3.80;70.10;;;;;;5012240;28;20558;-85
2021/03/02 04:46:26;;;;;;;8.77;4.97;;;3.70;70.10;;;;;;5012491;28;20018;-85
2021/03/02 04:48:52;;;;;;;9.13;5.55;;;3.70;70.20;;;;;;5012086;28;20495;-88
2021/03/02 04:51:18;;;;;;;8.43;5.20;;;3.70;70.30;;;;;;5012345;28;20065;-86
2021/03/02 04:53:44;;;;;;;6.68;4.35;;;3.70;70.40;;;;;;5012008;28;20472;-86
2021/03/02 04:56:10;;;;;;;6.97;4.50;;;3.70;70.40;;;;;;5009879;28;20108;-85
2021/03/02 04:58:36;;;;;;;8.32;4.40;;;3.70;70.50;;;;;;5011811;28;20092;-86
2021/03/02 05:01:02;;;;;;;9.40;4.95;;;3.70;70.60;;;;;;5010806;28;20026;-87
2021/03/02 05:03:27;;;;;;;9.77;4.93;;;3.70;70.70;;;;;;5011794;28;20383;-86
2021/03/02 05:05:53;;;;;;;7.97;4.35;;;3.70;70.70;;;;;;5012054;28;20026;-86
2021/03/02 05:08:19;;;;;;;7.28;4.63;;;3.70;70.80;;;;;;5012146;28;20026;-86
2021/03/02 05:10:44;;;;;;;10.88;4.88;;;3.70;70.70;;;;;;5012701;28;20057;-85
2021/03/02 05:13:10;;;;;;;10.00;5.18;;;3.70;70.80;;;;;;5014209;28;20113;-85
2021/03/02 05:15:36;;;;;;;11.75;5.78;;;3.70;70.80;;;;;;5012618;28;20471;-85
2021/03/02 05:18:03;;;;;;;9.70;5.22;;;3.80;70.80;;;;;;5016345;28;20081;-86
2021/03/02 05:20:28;;;;;;;9.30;4.93;;;3.80;70.90;;;;;;5013873;28;20018;-86
2021/03/02 05:22:54;;;;;;;8.20;4.43;;;3.80;70.90;;;;;;5016317;28;20044;-85
2021/03/02 05:25:20;;;;;;;6.47;4.60;;;3.90;70.90;;;;;;4998031;28;20454;-84
2021/03/02 05:27:45;;;;;;;6.18;4.57;;;3.90;70.80;;;;;;5015733;28;20021;-86
2021/03/02 05:30:12;;;;;;;12.18;6.35;;;3.90;70.70;;;;;;5016073;28;20041;-85
2021/03/02 05:32:37;;;;;;;15.50;7.32;;;3.90;70.60;;;;;;5015901;28;20088;-88
2021/03/02 05:35:04;;;;;;;22.00;9.82;;;4.00;70.70;;;;;;5016175;28;20029;-84
2021/03/02 05:37:29;;;;;;;18.35;8.13;;;3.90;70.70;;;;;;4998580;28;20491;-85
2021/03/02 05:39:55;;;;;;;19.77;9.00;;;4.00;70.70;;;;;;5016206;28;20030;-86
2021/03/02 05:42:21;;;;;;;18.42;7.97;;;4.00;70.60;;;;;;5016140;28;20443;-85
2021/03/02 05:44:47;;;;;;;21.50;9.07;;;4.00;70.60;;;;;;5017781;28;20029;-85
2021/03/02 05:47:14;;;;;;;17.50;8.50;;;4.00;70.60;;;;;;5015452;28;20114;-85
2021/03/02 05:49:41;;;;;;;19.10;9.45;;;4.00;70.60;;;;;;4999506;28;20542;-86
2021/03/02 05:52:10;;;;;;;27.38;11.60;;;4.10;70.70;;;;;;5016604;28;20058;-86
2021/03/02 05:54:37;;;;;;;25.55;10.25;;;4.10;70.70;;;;;;5015743;28;20104;-86
2021/03/02 05:57:03;;;;;;;12.52;6.28;;;4.20;70.80;;;;;;5016080;28;20032;-86
2021/03/02 05:59:29;;;;;;;14.85;7.95;;;4.20;70.60;;;;;;4981987;28;20031;-85
2021/03/02 06:01:55;;;;;;;20.25;8.52;;;4.30;70.60;;;;;;5015527;28;20038;-86
2021/03/02 06:04:21;;;;;;;13.68;7.03;;;4.30;70.50;;;;;;4997804;28;20026;-86
2021/03/02 06:06:47;;;;;;;13.88;6.15;;;4.40;70.40;;;;;;4998467;28;20037;-85
2021/03/02 06:09:12;;;;;;;9.98;5.65;;;4.50;70.30;;;;;;5015513;28;20492;-85
2021/03/02 06:11:38;;;;;;;9.98;5.78;;;4.60;70.20;;;;;;5015645;28;20033;-86
2021/03/02 06:14:24;;;;;;;10.65;6.32;;;4.60;70.10;;;;;;5014751;28;20033;-85
2021/03/02 06:16:51;;;;;;;8.85;5.03;;;4.70;70.20;;;;;;4998914;28;20033;-85
2021/03/02 06:19:19;;;;;;;8.43;5.50;;;4.80;70.00;;;;;;5016034;28;20452;-85
2021/03/02 06:21:44;;;;;;;10.35;5.60;;;4.90;69.90;;;;;;4997634;28;20088;-85
2021/03/02 06:24:10;;;;;;;9.13;5.70;;;5.00;69.70;;;;;;5013933;28;20026;-86
2021/03/02 06:26:38;;;;;;;9.43;5.63;;;5.10;69.70;;;;;;5014969;28;20053;-85
2021/03/02 06:29:14;;;;;;;7.20;5.05;;;5.30;69.60;;;;;;5015461;28;20460;-86
2021/03/02 06:31:41;;;;;;;8.70;5.40;;;5.40;69.00;;;;;;5015216;28;20073;-86
2021/03/02 06:34:08;;;;;;;8.43;4.57;;;5.50;69.50;;;;;;5015307;28;20375;-85
2021/03/02 06:36:34;;;;;;;8.10;5.65;;;5.70;68.70;;;;;;5015605;28;20353;-85
2021/03/02 06:39:21;;;;;;;10.88;6.07;;;5.80;68.10;;;;;;5015178;28;20117;-90
2021/03/02 06:41:47;;;;;;;8.98;5.18;;;6.00;68.70;;;;;;4985063;28;20050;-86
2021/03/02 06:44:14;;;;;;;9.50;5.28;;;6.20;67.70;;;;;;5015454;28;20037;-83
2021/03/02 06:46:40;;;;;;;21.13;5.75;;;6.20;66.60;;;;;;5014874;28;20025;-78
2021/03/02 06:49:06;;;;;;;8.98;5.63;;;6.20;66.20;;;;;;5014345;28;20075;-77
2021/03/02 06:51:34;;;;;;;11.65;5.72;;;6.20;66.00;;;;;;5013790;28;20131;-76
2021/03/02 06:54:17;;;;;;;9.95;5.82;;;6.20;65.60;;;;;;5014154;28;20472;-77
2021/03/02 06:56:44;;;;;;;17.30;6.95;;;6.10;65.60;;;;;;5014153;28;20037;-76
2021/03/02 06:59:19;;;;;;;17.77;8.07;;;6.10;65.70;;;;;;5014235;28;20030;-83
2021/03/02 07:01:47;;;;;;;15.55;8.13;;;6.00;66.10;;;;;;5013735;28;20037;-76
2021/03/02 07:04:13;;;;;;;14.18;8.07;;;6.10;66.00;;;;;;4996437;28;20021;-77
2021/03/02 07:07:17;;;;;;;14.60;7.88;;;6.10;65.80;;;;;;5013914;28;20033;-77
2021/03/02 07:09:48;;;;;;;12.40;6.20;;;6.00;65.40;;;;;;5013054;28;20041;-76
2021/03/02 07:12:19;;;;;;;12.13;6.53;;;5.90;65.30;;;;;;5013845;28;20068;-77
2021/03/02 07:14:48;;;;;;;9.07;5.65;;;5.80;65.40;;;;;;5013967;28;20037;-76
2021/03/02 07:17:14;;;;;;;15.05;6.80;;;5.80;65.80;;;;;;5014118;28;20427;-78
2021/03/02 07:19:48;;;;;;;9.70;6.10;;;5.80;65.90;;;;;;5013964;28;20041;-76
2021/03/02 07:22:19;;;;;;;10.55;6.13;;;5.80;66.10;;;;;;5013532;28;20384;-78
2021/03/02 07:24:46;;;;;;;11.43;6.28;;;5.80;66.10;;;;;;5013523;28;20037;-76
2021/03/02 07:27:14;;;;;;;11.40;6.30;;;5.80;66.00;;;;;;5013686;28;20084;-79
2021/03/02 07:29:40;;;;;;;16.70;8.25;;;5.80;66.00;;;;;;5014261;28;20076;-76
2021/03/02 07:32:09;;;;;;;13.20;7.63;;;5.80;66.10;;;;;;5013871;28;20030;-78
2021/03/02 07:34:35;;;;;;;10.57;6.00;;;5.80;66.20;;;;;;5013660;28;20069;-76
2021/03/02 07:37:01;;;;;;;10.38;6.72;;;5.90;66.10;;;;;;4996488;28;20033;-76
2021/03/02 07:39:27;;;;;;;12.95;7.22;;;5.90;66.00;;;;;;5012679;28;20380;-77
2021/03/02 07:41:54;;;;;;;7.75;5.30;;;6.00;65.90;;;;;;5013502;28;20112;-76
2021/03/02 07:44:20;;;;;;;10.80;6.72;;;6.00;65.70;;;;;;5012407;28;20439;-77
2021/03/02 07:46:47;;;;;;;10.85;6.63;;;5.90;65.70;;;;;;5012178;28;20080;-76
2021/03/02 07:49:22;;;;;;;14.13;7.93;;;5.90;65.70;;;;;;4979144;28;20439;-77
2021/03/02 07:52:09;;;;;;;8.07;5.45;;;5.90;65.90;;;;;;5011948;28;20033;-78
2021/03/02 07:54:35;;;;;;;11.93;6.40;;;5.90;65.90;;;;;;4998737;28;20038;-77
2021/03/02 07:57:16;;;;;;;13.02;8.15;;;5.90;65.80;;;;;;5011973;28;20025;-77
2021/03/02 07:59:43;;;;;;;13.00;6.88;;;6.00;65.80;;;;;;5011948;28;20026;-76
2021/03/02 08:02:18;;;;;;;10.40;6.72;;;6.00;65.90;;;;;;5012086;28;20030;-76
2021/03/02 08:04:47;;;;;;;;;;;6.00;65.70;;;;;;5012557;28;20026;-76
2021/03/02 08:07:18;;;;;;;11.45;6.93;;;5.90;65.60;;;;;;5011910;28;19909;-80
2021/03/02 08:09:44;;;;;;;13.43;7.38;;;5.90;65.50;;;;;;5011320;28;20538;-77
2021/03/02 08:12:28;;;;;;;16.00;7.70;;;5.80;65.80;;;;;;4994180;28;20029;-77
2021/03/02 08:14:55;;;;;;;11.65;6.82;;;5.90;65.90;;;;;;5011779;28;20042;-76
2021/03/02 08:17:22;;;;;;;10.82;7.13;;;5.80;65.80;;;;;;5011902;28;20034;-78
2021/03/02 08:19:51;;;;;;;16.60;9.18;;;5.80;65.90;;;;;;5011701;28;20030;-76
2021/03/02 08:22:23;;;;;;;12.75;7.45;;;5.80;66.30;;;;;;5011582;28;20041;-77
2021/03/02 08:24:58;;;;;;;9.25;6.50;;;5.80;66.30;;;;;;5009463;28;20076;-77
2021/03/02 08:27:40;;;;;;;12.15;8.00;;;5.80;66.10;;;;;;5011529;28;20014;-77
2021/03/02 08:30:11;;;;;;;12.57;7.57;;;5.90;66.50;;;;;;5008950;28;20044;-77
2021/03/02 08:32:38;;;;;;;12.07;7.18;;;6.00;66.50;;;;;;5011699;28;20081;-77
2021/03/02 08:35:09;;;;;;;12.02;6.32;;;6.00;65.90;;;;;;5011669;28;20018;-77
2021/03/02 08:37:45;;;;;;;13.13;7.72;;;6.00;65.80;;;;;;5011432;28;20026;-77
2021/03/02 08:40:21;;;;;;;11.93;7.18;;;5.90;65.80;;;;;;5011746;28;20170;-77
2021/03/02 08:43:06;;;;;;;10.27;7.30;;;5.80;65.90;;;;;;5009147;28;20029;-77
2021/03/02 08:45:37;;;;;;;10.60;7.00;;;5.90;66.30;;;;;;4992194;28;20114;-77
2021/03/02 08:48:19;;;;;;;11.68;6.95;;;5.90;65.70;;;;;;5011595;28;20060;-77
2021/03/02 08:50:46;;;;;;;11.25;6.88;;;5.80;65.70;;;;;;5014343;28;20119;-77
2021/03/02 08:53:30;;;;;;;11.93;7.15;;;5.70;66.00;;;;;;5015378;28;20026;-75
2021/03/02 08:55:57;;;;;;;13.68;8.00;;;5.60;66.20;;;;;;5015218;28;20042;-77
2021/03/02 08:58:33;;;;;;;13.07;8.02;;;5.60;66.40;;;;;;5015356;28;20049;-76
2021/03/02 09:01:10;;;;;;;12.77;8.18;;;5.60;66.50;;;;;;5015052;28;20048;-76
2021/03/02 09:03:40;;;;;;;14.63;8.30;;;5.60;66.70;;;;;;5015790;28;20030;-76
2021/03/02 09:06:18;;;;;;;12.80;8.23;;;5.60;66.90;;;;;;5016196;28;20072;-77
2021/03/02 09:08:52;;;;;;;12.80;7.25;;;5.60;66.90;;;;;;5016289;28;20460;-76
2021/03/02 09:11:21;;;;;;;15.60;8.88;;;5.60;66.70;;;;;;5016456;28;20129;-76
2021/03/02 09:13:47;;;;;;;19.45;8.43;;;5.60;66.70;;;;;;5015941;28;20542;-77
2021/03/02 09:16:27;;;;;;;15.95;9.13;;;5.60;66.60;;;;;;5016333;28;20101;-76
2021/03/02 09:19:14;;;;;;;14.30;9.13;;;5.50;66.60;;;;;;5016224;28;20026;-76
2021/03/02 09:22:04;;;;;;;15.38;8.18;;;5.60;67.00;;;;;;5016099;28;20022;-76
2021/03/02 09:24:38;;;;;;;15.15;9.23;;;5.60;67.10;;;;;;5015878;28;20109;-76
2021/03/02 09:27:07;;;;;;;17.05;8.95;;;5.60;67.10;;;;;;5016046;28;20065;-75
2021/03/02 09:29:35;;;;;;;22.83;12.32;;;5.70;67.10;;;;;;5015279;28;20041;-77
2021/03/02 09:32:04;;;;;;;16.60;9.52;;;5.70;67.00;;;;;;5015973;28;20499;-77
2021/03/02 09:34:37;;;;;;;16.30;8.68;;;5.70;66.80;;;;;;5015579;28;20080;-76
2021/03/02 09:37:09;;;;;;;15.45;8.68;;;5.60;66.80;;;;;;5015926;28;20022;-76
2021/03/02 09:39:37;;;;;;;17.20;9.27;;;5.60;66.80;;;;;;5015803;28;20080;-78
2021/03/02 09:42:18;;;;;;;16.75;10.43;;;5.60;66.80;;;;;;5015777;28;20026;-78
2021/03/02 09:44:51;;;;;;;17.77;9.90;;;5.50;67.10;;;;;;5015735;28;20424;-77
2021/03/02 09:47:24;;;;;;;19.92;11.25;;;5.50;67.20;;;;;;5015559;28;20029;-80
2021/03/02 09:50:09;;;;;;;24.17;11.45;;;5.50;67.30;;;;;;4997673;28;20112;-77
2021/03/02 09:52:39;;;;;;;;;;;5.60;67.30;;;;;;5015564;28;20029;-79
2021/03/02 09:55:18;;;;;;;19.52;9.65;;;5.60;67.30;;;;;;5015726;28;20355;-77
2021/03/02 09:58:13;;;;;;;13.65;7.90;;;5.60;67.20;;;;;;5015622;28;20438;-77
2021/03/02 10:00:45;;;;;;;17.13;9.60;;;5.60;67.10;;;;;;5015001;28;20030;-76
2021/03/02 10:03:10;;;;;;;20.52;11.48;;;5.50;66.80;;;;;;5015086;28;20388;-76
2021/03/02 10:06:14;;;;;;;18.38;10.05;;;5.40;67.00;;;;;;5014533;28;20022;-77
2021/03/02 10:08:42;;;;;;;20.05;10.82;;;5.30;67.30;;;;;;4935717;29;20749;-78
2021/03/02 10:11:10;;;;;;;21.05;12.00;;;5.40;67.70;;;;;;4999305;28;20372;-77
2021/03/02 10:13:49;;;;;;;21.08;9.80;;;5.40;68.00;;;;;;5014810;28;20030;-79
2021/03/02 10:16:29;;;;;;;22.55;10.60;;;5.40;67.70;;;;;;4997343;28;20033;-77
2021/03/02 10:19:04;;;;;;;29.98;15.60;;;5.40;67.50;;;;;;5014768;28;20506;-77
2021/03/02 10:21:47;;;;;;;22.92;11.07;;;5.40;67.40;;;;;;5014768;28;20026;-76
2021/03/02 10:24:25;;;;;;;19.13;10.50;;;5.40;67.40;;;;;;5015076;28;20443;-77
2021/03/02 10:26:51;;;;;;;23.17;11.77;;;5.30;67.50;;;;;;5014594;28;20030;-77
2021/03/02 10:29:17;;;;;;;21.13;10.85;;;5.30;67.70;;;;;;4997055;28;20029;-79
2021/03/02 10:31:43;;;;;;;22.15;10.88;;;5.40;68.00;;;;;;5014784;28;20091;-80
2021/03/02 10:34:11;;;;;;;24.60;12.10;;;5.40;67.80;;;;;;5014809;28;20352;-78
2021/03/02 10:36:42;;;;;;;20.67;10.77;;;5.40;67.80;;;;;;5014593;28;20025;-78
2021/03/02 10:39:10;;;;;;;23.40;12.60;;;5.40;67.80;;;;;;5015070;28;20053;-77
2021/03/02 10:41:36;;;;;;;24.73;12.77;;;5.40;67.70;;;;;;5014404;28;20037;-77
2021/03/02 10:44:02;;;;;;;27.02;12.20;;;5.50;67.90;;;;;;5014617;28;20109;-77
2021/03/02 10:46:30;;;;;;;23.90;10.80;;;5.50;68.50;;;;;;5014483;28;20114;-78
2021/03/02 10:48:55;;;;;;;27.10;12.35;;;5.50;67.50;;;;;;5014250;28;20033;-77
2021/03/02 10:51:22;;;;;;;28.60;13.52;;;5.50;67.20;;;;;;4996755;28;20041;-77
2021/03/02 10:53:48;;;;;;;27.13;11.52;;;5.40;67.30;;;;;;4996607;28;20083;-77
2021/03/02 10:56:15;;;;;;;32.13;13.43;;;5.40;67.40;;;;;;4997088;28;20034;-76
2021/03/02 10:58:42;;;;;;;33.70;13.98;;;5.30;67.90;;;;;;5014135;28;20064;-78
2021/03/02 11:01:07;;;;;;;36.15;14.85;;;5.20;67.60;;;;;;5014231;28;20038;-77
2021/03/02 11:03:33;;;;;;;34.40;14.75;;;5.20;67.90;;;;;;5014447;28;20105;-76
2021/03/02 11:05:59;;;;;;;33.40;14.02;;;5.20;68.10;;;;;;5013852;28;20030;-77
2021/03/02 11:08:25;;;;;;;36.15;15.23;;;5.20;68.20;;;;;;5014127;28;20088;-77
2021/03/02 11:10:51;;;;;;;35.13;14.48;;;5.30;68.30;;;;;;4996580;28;20042;-77
2021/03/02 11:13:18;;;;;;;34.53;14.23;;;5.30;68.30;;;;;;5013748;28;20071;-76
2021/03/02 11:15:44;;;;;;;33.45;15.23;;;5.30;68.00;;;;;;4996622;28;20392;-78
2021/03/02 11:18:10;;;;;;;39.00;15.32;;;5.30;67.80;;;;;;5014185;28;20085;-80
2021/03/02 11:20:38;;;;;;;35.55;15.68;;;5.30;68.00;;;;;;5012595;28;20342;-80
2021/03/02 11:23:04;;;;;;;34.88;14.70;;;5.30;68.30;;;;;;5010179;28;20059;-79
2021/03/02 11:25:30;;;;;;;35.95;15.35;;;5.30;68.00;;;;;;5012755;28;20042;-79
2021/03/02 11:27:56;;;;;;;35.17;15.05;;;5.30;67.90;;;;;;5013748;28;20026;-76
2021/03/02 11:30:23;;;;;;;34.42;13.95;;;5.30;67.90;;;;;;4996618;28;20084;-76
2021/03/02 11:32:48;;;;;;;36.92;13.70;;;5.30;67.80;;;;;;5013524;28;20073;-79
2021/03/02 11:35:16;;;;;;;37.22;15.77;;;5.30;67.90;;;;;;5013819;28;20420;-78
2021/03/02 11:37:42;;;;;;;38.95;15.85;;;5.30;68.00;;;;;;5013451;28;20034;-77
2021/03/02 11:40:11;;;;;;;37.65;17.02;;;5.30;68.20;;;;;;5013860;28;20053;-78
2021/03/02 11:42:37;;;;;;;30.85;14.35;;;5.30;68.20;;;;;;5013456;28;20041;-75
2021/03/02 11:45:05;;;;;;;38.22;15.38;;;5.30;68.00;;;;;;5013286;28;20029;-78
2021/03/02 11:47:31;;;;;;;37.15;15.95;;;5.40;67.90;;;;;;5012981;28;20057;-76
2021/03/02 11:49:57;;;;;;;33.55;14.77;;;5.30;67.90;;;;;;5010453;28;20057;-77
2021/03/02 11:52:24;;;;;;;35.65;15.57;;;5.40;68.30;;;;;;4995141;28;20026;-76
2021/03/02 11:54:50;;;;;;;32.05;13.73;;;5.40;68.20;;;;;;5012896;28;20077;-77
2021/03/02 11:57:16;;;;;;;36.67;15.27;;;5.50;68.20;;;;;;5012854;28;20049;-76
2021/03/02 11:59:43;;;;;;;36.08;14.55;;;5.50;67.90;;;;;;5012690;28;20463;-76
2021/03/02 12:02:09;;;;;;;38.67;15.45;;;5.50;67.70;;;;;;5013362;28;20104;-77
2021/03/02 12:04:35;;;;;;;38.65;16.30;;;5.50;67.60;;;;;;5011118;28;20080;-76
2021/03/02 12:07:01;;;;;;;43.10;15.38;;;5.50;67.50;;;;;;5013102;28;20025;-78
2021/03/02 12:09:27;;;;;;;38.55;15.70;;;5.40;67.50;;;;;;5013080;28;20052;-78
2021/03/02 12:11:53;;;;;;;42.08;18.33;;;5.40;67.70;;;;;;5012476;28;20030;-77
2021/03/02 12:14:18;;;;;;;40.47;15.95;;;5.40;67.80;;;;;;5012251;28;20053;-77
2021/03/02 12:16:44;;;;;;;39.85;15.88;;;5.40;67.90;;;;;;5011882;28;20117;-77
2021/03/02 12:19:10;;;;;;;40.40;15.80;;;5.50;68.20;;;;;;5011593;28;20503;-77
2021/03/02 12:21:35;;;;;;;38.35;14.90;;;5.50;67.80;;;;;;5011378;28;20152;-77
2021/03/02 12:24:01;;;;;;;39.60;15.00;;;5.50;67.80;;;;;;5011669;28;20030;-76
2021/03/02 12:26:27;;;;;;;39.45;15.93;;;5.50;67.80;;;;;;5015672;28;20022;-77
2021/03/02 12:28:52;;;;;;;56.15;21.48;;;5.50;67.70;;;;;;5015981;28;20018;-77
2021/03/02 12:31:18;;;;;;;39.17;15.57;;;5.50;67.60;;;;;;5015803;28;20123;-76
2021/03/02 12:33:44;;;;;;;31.88;14.32;;;5.50;67.70;;;;;;5015378;28;20025;-79
2021/03/02 12:36:10;;;;;;;39.20;17.63;;;5.50;67.70;;;;;;5015674;28;20025;-77
2021/03/02 12:38:35;;;;;;;37.25;15.43;;;5.50;67.80;;;;;;5015377;28;20126;-77
2021/03/02 12:41:01;;;;;;;38.47;15.07;;;5.50;67.90;;;;;;5012835;28;20113;-77
2021/03/02 12:43:27;;;;;;;35.50;14.38;;;5.50;67.50;;;;;;5014060;28;20030;-77
2021/03/02 12:45:52;;;;;;;39.83;14.75;;;5.40;67.50;;;;;;5015532;28;20486;-76
2021/03/02 12:48:18;;;;;;;38.63;15.10;;;5.40;67.50;;;;;;5015388;28;20098;-77
2021/03/02 12:50:44;;;;;;;36.88;14.65;;;5.40;67.70;;;;;;5010422;28;20567;-79
2021/03/02 12:53:10;;;;;;;39.22;14.63;;;5.40;67.70;;;;;;5014774;28;20056;-78